Tiempo atmosférico en la estación meteorológica de Albarracín, Teruel (1130 m.)



Fecha
DESCASC
Temp. máxima en grados centígrados (hora)
DESCASC
Temp. mínima en grados centígrados (hora)
DESCASC
Temp. media en grados centígrados
DESCASC
Racha de viento máxima en m/sg (hora)
DESCASC
Velocidad máxima media en intervalos de 10 minutos(hora)
DESCASC
Precipitaciones diarias en mm
DESCASC
Precipitaciones de 00:00 a 06:00 en mm
DESCASC
Precipitaciones de 06:00 a 12:00 en mm
DESCASC
Precipitaciones de 12:00 a 18:00 en mm
DESCASC
Precipitaciones de 18:00 a 24:00 en mm
DESCASC
16-01-2020 13 (15:50) 0.9 (06:00) 6.9 6.94 (14:40) 3.61 (14:10) 0 0 0 0 0
15-01-2020 12.1 (13:50) -3.6 (08:50) 4.3 10 (13:00) 5.28 (13:00) 0 0 0 0 0
14-01-2020 13 (15:00) -5.4 (06:50) 3.8 7.22 (09:40) 4.72 (09:40) 0 0 0 0 0
13-01-2020 12.4 (15:00) -6.7 (07:40) 2.8 7.5 (22:50) 4.72 (20:10) 0 0 0 0 0
12-01-2020 10.4 (16:20) -7.7 (08:30) 1.3 5.28 (04:50) 3.06 (14:10) 0 0 0 0 0
11-01-2020 10.9 (16:10) -4 (-00:0) 3.4 6.11 (01:30) 3.61 (00:20) 0 0 0 0 0
10-01-2020 6.3 (04:00) 1.3 (00:00) 3.8 15.56 (12:10) 9.72 (12:30) 0 0 0 0 0
09-01-2020 15.6 (14:50) -1.7 (-00:0) 7 7.22 (05:20) 5.28 (05:20) 0 0 0 0 0
08-01-2020 12.8 (16:00) -1.8 (-00:0) 5.5 5 (15:50) 2.5 (15:30) 0 0 0 0 0
07-01-2020 16.2 (16:00) -3.7 (-00:0) 6.3 8.33 (14:40) 4.72 (14:40) 0 0 0 0 0
06-01-2020 14.9 (14:30) -2.3 (-00:0) 6.3 7.22 (00:10) 3.89 (10:40) 0 0 0 0 0
05-01-2020 16.4 (14:40) -4 (-00:0) 6.2 8.61 (06:50) 4.44 (06:50) 0 0 0 0 0
04-01-2020 6.8 (15:30) -2.3 (-00:0) 2.3 10.83 (00:40) 5.83 (01:10) 0 0 0 0 0
03-01-2020 10.6 (15:00) -2.8 (-00:0) 3.9 6.39 (17:30) 3.33 (23:59) 0 0 0 0 0
02-01-2020 15.7 (15:10) -3 (-00:0) 6.3 7.78 (09:20) 4.72 (09:20) 0 0 0 0 0
01-01-2020 14.9 (16:00) -3.5 (-00:0) 5.7 7.22 (23:30) 3.89 (23:30) 0 0 0 0 0
31-12-2019 15.8 (15:10) -2.8 (-00:0) 6.5 6.67 (07:50) 3.06 (08:40) 0 0 0 0 0
30-12-2019 -- (--) -- (--) -- -- (--) -- (--) -- 0 0 0 --
29-12-2019 14.5 (16:10) -3.1 (-00:0) 5.7 5.83 (10:10) 3.61 (10:30) 0 0 0 0 0
28-12-2019 16.8 (15:00) -4.7 (-00:0) 6 8.61 (09:20) 5 (10:30) 0 0 0 0 0
27-12-2019 14.7 (15:40) -3.5 (-00:0) 5.6 7.78 (22:50) 4.72 (22:50) 0 0 0 0 0
26-12-2019 13.4 (15:40) 1 (00:00) 7.2 7.78 (12:30) 4.17 (12:20) 0 0 0 0 0
25-12-2019 16.8 (15:50) 0.2 (00:00) 8.5 7.78 (03:50) 4.44 (04:00) 0 0 0 0 0
24-12-2019 17.7 (14:20) 0.8 (08:30) 9.3 7.78 (12:30) 3.89 (12:30) 0 0 0 0 0
23-12-2019 15 (15:20) 2.2 (00:00) 8.6 13.33 (12:50) 5.56 (14:50) 0 0 0 0 0
22-12-2019 11.5 (12:50) 7.3 (03:20) 9.4 16.67 (15:00) 7.5 (15:00) 0.6 0.6 0 0 0
21-12-2019 15.1 (14:10) 7.8 (23:20) 11.5 19.17 (16:00) 7.78 (16:00) 2.6 0 1.2 0.8 0.6
20-12-2019 11.9 (06:30) 8.6 (00:00) 10.3 21.39 (00:20) 9.44 (01:00) 25.8 8.6 6.4 2.6 8.2

Gráficas

Temp. máximas Temp. mínimas Temp. medias Precipitaciones Rachas de viento máximas Velocidades máximas media en intervalos de 10 minutos

Datos horarios

Fecha y hora oficial Temperatura (ºC) Velocidad del viento (km/h) Dirección del viento Racha (km/h) Dirección de racha Precipitación (mm) Presión (hPa) Tendencia (hPa) Humedad (%)
2020-01-18 23:00:00 5.7 13 Sur 33 Oeste 1.4 -- -- 85
2020-01-18 22:00:00 7.6 0 Calma 7 Sudoeste 0 -- -- 77
2020-01-18 21:00:00 7.8 4 Norte 34 Sur 0 -- -- 76
2020-01-18 20:00:00 7.9 21 Sur 46 Sur 0 -- -- 75
2020-01-18 19:00:00 7.7 28 Sur 47 Sudoeste 0 -- -- 76
2020-01-18 18:00:00 7.7 22 Sur 42 Sudoeste 0 -- -- 76
2020-01-18 17:00:00 7.7 18 Sur 37 Sur 0 -- -- 72
2020-01-18 16:00:00 7.9 19 Sur 41 Sudoeste 0 -- -- 71
2020-01-18 15:00:00 8.2 23 Sur 46 Sur 0 -- -- 68
2020-01-18 14:00:00 9.1 16 Sur 40 Sur 0 -- -- 64
2020-01-18 13:00:00 8.9 19 Sur 39 Sur 0 -- -- 65
2020-01-18 12:00:00 8.1 23 Sudoeste 42 Sudoeste 0 -- -- 65
2020-01-18 11:00:00 7.6 14 Sudoeste 26 Sudoeste 0 -- -- 65
2020-01-18 10:00:00 5.1 10 Sur 21 Sur 0 -- -- 73
2020-01-18 09:00:00 4 4 Noroeste 15 Sur 0 -- -- 78
2020-01-18 08:00:00 4.5 9 Sudoeste 28 Sur 0 -- -- 78
2020-01-18 07:00:00 3.7 11 Sur 23 Sudeste 0 -- -- 79
2020-01-18 06:00:00 1 17 Sudeste 23 Sudeste 0 -- -- 83
2020-01-18 05:00:00 1.1 9 Sur 20 Sudeste 0 -- -- 84
2020-01-18 04:00:00 -0.9 4 Sur 10 Sudeste 0 -- -- 89
2020-01-18 03:00:00 -0.9 0 Calma 6 Sudeste 0 -- -- 89
2020-01-18 02:00:00 -1.1 0 Calma 7 Oeste 0 -- -- 88
2020-01-18 01:00:00 -1.6 2 Sudoeste 5 Sudoeste 0 -- -- 89
2020-01-18 00:00:00 -1.4 0 Calma 9 Sudoeste 0 -- -- 87
2020-01-17 23:00:00 -0.7 4 Norte 10 Oeste 0 -- -- 83
2020-01-17 22:00:00 0.9 5 Noroeste 17 Oeste 0 -- -- 79
2020-01-17 21:00:00 2 15 Oeste 18 Oeste 0 -- -- 76
2020-01-17 20:00:00 2.3 4 Sudeste 13 Oeste 0 -- -- 75
2020-01-17 19:00:00 4.3 3 Oeste 13 Sudoeste 0 -- -- 66
2020-01-17 18:00:00 6.5 5 Oeste 25 Oeste 0 -- -- 59
2020-01-17 17:00:00 8.6 15 Oeste 28 Oeste 0 -- -- 50
2020-01-17 16:00:00 8.8 9 Noroeste 25 Sudoeste 0 -- -- 54
2020-01-17 15:00:00 8.7 12 Oeste 28 Sudoeste 0 -- -- 58
2020-01-17 14:00:00 7.8 9 Sudoeste 26 Oeste 0 -- -- 66
2020-01-17 13:00:00 7.7 9 Oeste 30 Oeste 0 -- -- 67
2020-01-17 12:00:00 6.9 8 Sudoeste 27 Oeste 0 -- -- 71
2020-01-17 11:00:00 6.4 15 Oeste 29 Noroeste 0 -- -- 68
2020-01-17 10:00:00 5.5 7 Sudoeste 27 Oeste 0 -- -- 70
2020-01-17 09:00:00 5.5 12 Sudoeste 28 Oeste 0 -- -- 70
2020-01-17 08:00:00 4.6 12 Sudoeste 21 Sudoeste 0 -- -- 72
2020-01-17 07:00:00 5.2 10 Sudoeste 21 Oeste 0 -- -- 68
2020-01-17 06:00:00 5.8 5 Sudoeste 20 Sur 0 -- -- 67
2020-01-17 05:00:00 5.6 11 Sur 26 Sur 0 -- -- 63
2020-01-17 04:00:00 5.4 13 Sur 21 Sur 0 -- -- 62
2020-01-17 03:00:00 6.3 6 Sudoeste 23 Sur 0 -- -- 59
2020-01-17 02:00:00 7.2 14 Sur 26 Sur 0 -- -- 56
2020-01-17 01:00:00 7.2 13 Sur 26 Sudoeste 0 -- -- 58
2020-01-17 00:00:00 2.3 4 Sur 8 Sudeste 0 -- -- 81
2020-01-16 23:00:00 2.8 3 Noroeste 7 Nordeste 0 -- -- 76
2020-01-16 22:00:00 5.8 7 Sur 19 Sur 0 -- -- 65
2020-01-16 21:00:00 6.4 10 Sudoeste 20 Sur 0 -- -- 69
2020-01-16 20:00:00 6.1 8 Sudeste 14 Sudeste 0 -- -- 71
2020-01-16 19:00:00 7.6 9 Sur 14 Sudoeste 0 -- -- 67
2020-01-16 18:00:00 9.5 8 Sudoeste 18 Sudoeste 0 -- -- 60
2020-01-16 17:00:00 11.5 5 Sur 21 Sur 0 -- -- 53
2020-01-16 16:00:00 12.5 9 Sur 23 Sur 0 -- -- 49
2020-01-16 15:00:00 12 7 Sudoeste 25 Oeste 0 -- -- 55
2020-01-16 14:00:00 11.8 9 Sudoeste 20 Sudoeste 0 -- -- 55
2020-01-16 13:00:00 12.6 7 Sudoeste 17 Sudoeste 0 -- -- 55
2020-01-16 12:00:00 11.3 10 Sudeste 18 Sur 0 -- -- 61
2020-01-16 11:00:00 8.4 5 Este 8 Este 0 -- -- 75
2020-01-16 10:00:00 5.1 4 Sudeste 9 Este 0 -- -- 84
2020-01-16 09:00:00 1.6 0 Calma 15 Este 0 -- -- 93
2020-01-16 08:00:00 1.5 5 Sudeste 15 Este 0 -- -- 92
2020-01-16 07:00:00 1.5 5 Sur 11 Este 0 -- -- 95
2020-01-16 06:00:00 0.9 7 Sur 10 Sudeste 0 -- -- 94
2020-01-16 05:00:00 1.8 7 Sur 10 Sur 0 -- -- 93
2020-01-16 04:00:00 1.9 4 Sur 8 Sudeste 0 -- -- 91
2020-01-16 03:00:00 3.9 4 Sur 10 Sudoeste 0 -- -- 88
2020-01-16 02:00:00 4.9 4 Sur 13 Sudoeste 0 -- -- 88
2020-01-16 01:00:00 4.5 3 Oeste 12 Sudeste 0 -- -- 88
2020-01-16 00:00:00 5.5 5 Sudeste 12 Sudoeste 0 -- -- 83
2020-01-15 23:00:00 6.5 10 Sudoeste 13 Sudoeste 0 -- -- 82
2020-01-15 22:00:00 6.1 4 Sudoeste 11 Sur 0 -- -- 82
2020-01-15 21:00:00 6.9 2 Sur 14 Oeste 0 -- -- 76
2020-01-15 20:00:00 6.9 8 Oeste 15 Oeste 0 -- -- 79
2020-01-15 19:00:00 6 2 Sudeste 11 Sudoeste 0 -- -- 76
2020-01-15 18:00:00 6.7 8 Sudoeste 18 Sudoeste 0 -- -- 73
2020-01-15 17:00:00 9.1 11 Sur 21 Oeste 0 -- -- 64
2020-01-15 16:00:00 9.9 11 Oeste 29 Oeste 0 -- -- 62
2020-01-15 15:00:00 11.9 12 Oeste 29 Oeste 0 -- -- 54
2020-01-15 14:00:00 11.9 14 Oeste 33 Sudoeste 0 -- -- 50
2020-01-15 13:00:00 11 19 Sudoeste 36 Sudoeste 0 -- -- 45
2020-01-15 12:00:00 10.2 11 Sudoeste 29 Sudoeste 0 -- -- 47
2020-01-15 11:00:00 5.9 5 Nordeste 18 Oeste 0 -- -- 62
2020-01-15 10:00:00 -1 2 Sudeste 6 Oeste 0 -- -- 88
2020-01-15 09:00:00 -3.6 3 Oeste 8 Sudeste 0 -- -- 91
2020-01-15 08:00:00 -3 2 Norte 5 Oeste 0 -- -- 90
2020-01-15 07:00:00 -2 0 Calma 5 Noroeste 0 -- -- 86
2020-01-15 06:00:00 -1.5 0 Calma 6 Nordeste 0 -- -- 84
2020-01-15 05:00:00 -0.8 0 Calma 5 Noroeste 0 -- -- 82
2020-01-15 04:00:00 -0.4 6 Oeste 10 Sudeste 0 -- -- 80
2020-01-15 03:00:00 -1.4 0 Calma 8 Sudeste 0 -- -- 82
2020-01-15 02:00:00 -2.1 4 Sudeste 9 Este 0 -- -- 80
2020-01-15 01:00:00 -1.6 0 Calma 14 Sudeste 0 -- -- 74
2020-01-15 00:00:00 -0.7 8 Sudeste 18 Sudoeste 0 -- -- 66
2020-01-14 23:00:00 1.9 13 Sudoeste 17 Sudoeste 0 -- -- 62
2020-01-14 22:00:00 1.3 6 Sur 15 Sur 0 -- -- 59
2020-01-14 21:00:00 1.4 2 Este 8 Sur 0 -- -- 60
2020-01-14 20:00:00 0.9 0 Calma 6 Este 0 -- -- 57
2020-01-14 19:00:00 3.7 2 Sur 12 Oeste 0 -- -- 47
2020-01-14 18:00:00 6.1 5 Oeste 10 Oeste 0 -- -- 39
2020-01-14 17:00:00 11.1 5 Norte 15 Norte 0 -- -- 28
2020-01-14 16:00:00 12 8 Norte 19 Norte 0 -- -- 28
2020-01-14 15:00:00 13 8 Norte 14 Norte 0 -- -- 28
2020-01-14 14:00:00 12 7 Norte 17 Noroeste 0 -- -- 31
2020-01-14 13:00:00 10.8 7 Noroeste 13 Noroeste 0 -- -- 28
2020-01-14 12:00:00 8.7 5 Sudeste 18 Sudeste 0 -- -- 31
2020-01-14 11:00:00 4 12 Sudeste 23 Sudeste 0 -- -- 38
2020-01-14 10:00:00 -0.3 9 Sur 26 Este 0 -- -- 46
2020-01-14 09:00:00 -4.4 9 Sudeste 20 Este 0 -- -- 55
2020-01-14 08:00:00 -5.4 3 Sur 11 Sudeste 0 -- -- 58
2020-01-14 07:00:00 -5.3 2 Noroeste 9 Este 0 -- -- 58
2020-01-14 06:00:00 -4.7 4 Oeste 11 Oeste 0 -- -- 54
2020-01-14 05:00:00 -4.9 3 Noroeste 9 Sur 0 -- -- 55
2020-01-14 04:00:00 -4.3 4 Sudeste 10 Nordeste 0 -- -- 52
2020-01-14 03:00:00 -3.4 2 Este 7 Sur 0 -- -- 48
2020-01-14 02:00:00 -2.4 2 Sudoeste 14 Sudoeste 0 -- -- 42
2020-01-14 01:00:00 -1 7 Sudeste 18 Este 0 -- -- 37
2020-01-14 00:00:00 -1.4 12 Sur 20 Sudeste 0 -- -- 40
2020-01-13 23:00:00 0.7 15 Sudeste 27 Sur 0 -- -- 35
2020-01-13 22:00:00 2.9 8 Este 23 Sur 0 -- -- 29
2020-01-13 21:00:00 2.3 3 Este 21 Sudoeste 0 -- -- 35
2020-01-13 20:00:00 4.6 15 Sudoeste 21 Sudoeste 0 -- -- 30
2020-01-13 19:00:00 4.3 8 Sur 14 Sudoeste 0 -- -- 41
2020-01-13 18:00:00 7 3 Sudoeste 9 Oeste 0 -- -- 35
2020-01-13 17:00:00 10.7 6 Norte 18 Norte 0 -- -- 27
2020-01-13 16:00:00 12.4 7 Norte 18 Noroeste 0 -- -- 32
2020-01-13 15:00:00 12.4 6 Norte 13 Noroeste 0 -- -- 32
2020-01-13 14:00:00 11.1 5 Norte 10 Norte 0 -- -- 29
2020-01-13 13:00:00 8.5 3 Noroeste 17 Sudeste 0 -- -- 33
2020-01-13 12:00:00 5.6 9 Sudeste 23 Sudeste 0 -- -- 36
2020-01-13 11:00:00 2 5 Sudeste 24 Sudeste 0 -- -- 43
2020-01-13 10:00:00 -1.4 8 Sudeste 17 Este 0 -- -- 55
2020-01-13 09:00:00 -5.1 5 Este 18 Este 0 -- -- 65
2020-01-13 08:00:00 -6.1 4 Sudoeste 21 Sudeste 0 -- -- 69
2020-01-13 07:00:00 -5.6 12 Sudeste 19 Sudeste 0 -- -- 66
2020-01-13 06:00:00 -6 6 Noroeste 18 Este 0 -- -- 67
2020-01-13 05:00:00 -5.3 4 Sudeste 22 Sudeste 0 -- -- 65
2020-01-13 04:00:00 -5.2 5 Este 22 Sudeste 0 -- -- 63
2020-01-13 03:00:00 -5.1 3 Noroeste 18 Sudeste 0 -- -- 61
2020-01-13 02:00:00 -4.3 3 Sur 18 Sudeste 0 -- -- 57
2020-01-13 01:00:00 -3 14 Sudeste 23 Sudeste 0 -- -- 52
2020-01-13 00:00:00 -3.1 9 Sudeste 19 Sudeste 0 -- -- 52
2020-01-12 23:00:00 -3.1 4 Este 17 Este 0 -- -- 50
2020-01-12 22:00:00 -2 8 Sudeste 17 Este 0 -- -- 47
2020-01-12 21:00:00 -1.1 6 Sudeste 15 Sudeste 0 -- -- 45
2020-01-12 20:00:00 -0.8 3 Sur 6 Sudeste 0 -- -- 41
2020-01-12 19:00:00 1 0 Calma 11 Oeste 0 -- -- 36
2020-01-12 18:00:00 3.3 0 Calma 10 Norte 0 -- -- 31
2020-01-12 17:00:00 8.7 4 Nordeste 15 Sudeste 0 -- -- 18
2020-01-12 16:00:00 10.1 6 Nordeste 11 Norte 0 -- -- 24
2020-01-12 15:00:00 9.5 6 Oeste 16 Norte 0 -- -- 32
2020-01-12 14:00:00 8.9 10 Norte 17 Norte 0 -- -- 36
2020-01-12 13:00:00 8.1 5 Noroeste 9 Oeste 0 -- -- 35
2020-01-12 12:00:00 5.1 2 Este 10 Este 0 -- -- 42
2020-01-12 11:00:00 -0.2 2 Noroeste 11 Este 0 -- -- 59
2020-01-12 10:00:00 -3.8 2 Oeste 7 Oeste 0 -- -- 74
2020-01-12 09:00:00 -7.5 2 Noroeste 8 Oeste 0 -- -- 84
2020-01-12 08:00:00 -7.6 2 Noroeste 7 Sur 0 -- -- 82
2020-01-12 07:00:00 -6.7 3 Sur 14 Sudeste 0 -- -- 83
2020-01-12 06:00:00 -5.9 4 Sudeste 13 Sudeste 0 -- -- 80
2020-01-12 05:00:00 -5.8 3 Nordeste 19 Sudeste 0 -- -- 82
2020-01-12 04:00:00 -5.6 0 Calma 9 Oeste 0 -- -- 82
2020-01-12 03:00:00 -4.8 5 Sudeste 13 Sudeste 0 -- -- 79
2020-01-12 02:00:00 -4.6 2 Sur 12 Sudeste 0 -- -- 79
2020-01-12 01:00:00 -3.7 3 Sur 15 Sudeste 0 -- -- 76
2020-01-12 00:00:00 -2.9 4 Sur 15 Sudeste 0 -- -- 74
2020-01-11 23:00:00 -1.8 6 Sur 13 Sudeste 0 -- -- 70
2020-01-11 22:00:00 -1.7 3 Sur 9 Este 0 -- -- 70
2020-01-11 21:00:00 -0.9 5 Sur 9 Sur 0 -- -- 69
2020-01-11 20:00:00 0.4 3 Sur 5 Sudeste 0 -- -- 65
2020-01-11 19:00:00 1.9 3 Sur 8 Sudeste 0 -- -- 62
2020-01-11 18:00:00 4.2 6 Noroeste 16 Norte 0 -- -- 58
2020-01-11 17:00:00 7.6 4 Sudoeste 9 Sudeste 0 -- -- 46
2020-01-11 16:00:00 10.4 2 Sur 10 Nordeste 0 -- -- 33
2020-01-11 15:00:00 9.3 4 Norte 10 Norte 0 -- -- 34
2020-01-11 14:00:00 8.1 4 Norte 10 Norte 0 -- -- 43
2020-01-11 13:00:00 6.8 3 Norte 9 Norte 0 -- -- 53
2020-01-11 12:00:00 5.5 2 Sudeste 17 Este 0 -- -- 57
2020-01-11 11:00:00 2.5 10 Este 19 Este 0 -- -- 71
2020-01-11 10:00:00 -0.3 8 Este 18 Sudeste 0 -- -- 81
2020-01-11 09:00:00 -3.8 2 Sur 6 Sudeste 0 -- -- 92
2020-01-11 08:00:00 -3.6 0 Calma 6 Oeste 0 -- -- 91
2020-01-11 07:00:00 -3.3 0 Calma 9 Oeste 0 -- -- 91
2020-01-11 06:00:00 -2.7 2 Sudoeste 5 Oeste 0 -- -- 91
2020-01-11 05:00:00 -1.5 4 Noroeste 9 Noroeste 0 -- -- 87
2020-01-11 04:00:00 -0.5 6 Oeste 10 Norte 0 -- -- 83
2020-01-11 03:00:00 1.9 3 Noroeste 15 Oeste 0 -- -- 78
2020-01-11 02:00:00 2.3 0 Calma 22 Noroeste 0 -- -- 81
2020-01-11 01:00:00 2.3 12 Noroeste 21 Noroeste 0 -- -- 81
2020-01-11 00:00:00 2.4 9 Norte 21 Noroeste 0 -- -- 80
2020-01-10 23:00:00 2.8 8 Norte 26 Norte 0 -- -- 78
2020-01-10 22:00:00 3.1 8 Norte 28 Noroeste 0 -- -- 75
2020-01-10 21:00:00 3.5 9 Norte 39 Noroeste 0 -- -- 75
2020-01-10 20:00:00 3.7 14 Noroeste 38 Noroeste 0 -- -- 75
2020-01-10 19:00:00 4 17 Noroeste 32 Noroeste 0 -- -- 74
2020-01-10 18:00:00 4.4 21 Noroeste 33 Noroeste 0 -- -- 70
2020-01-10 17:00:00 4.8 17 Norte 33 Noroeste 0 -- -- 67
2020-01-10 16:00:00 4.9 19 Norte 39 Noroeste 0 -- -- 68
2020-01-10 15:00:00 5 16 Noroeste 40 Noroeste 0 -- -- 66
2020-01-10 14:00:00 4.8 27 Noroeste 50 Noroeste 0 -- -- 66
2020-01-10 13:00:00 4.7 24 Noroeste 56 Noroeste 0 -- -- 65
2020-01-10 12:00:00 4.4 24 Noroeste 44 Noroeste 0 -- -- 65
2020-01-10 11:00:00 3.7 25 Noroeste 36 Noroeste 0 -- -- 72
2020-01-10 10:00:00 3.1 11 Noroeste 23 Noroeste 0 -- -- 79
2020-01-10 09:00:00 2.2 4 Sudoeste 15 Noroeste 0 -- -- 85
2020-01-10 08:00:00 2.5 4 Noroeste 24 Norte 0 -- -- 88
2020-01-10 07:00:00 3.1 17 Noroeste 26 Noroeste 0 -- -- 87
2020-01-10 06:00:00 3.1 11 Noroeste 29 Norte 0 -- -- 85
2020-01-10 05:00:00 5 18 Norte 31 Norte 0 -- -- 76
2020-01-10 04:00:00 6.3 18 Noroeste 28 Noroeste 0 -- -- 77
2020-01-10 03:00:00 1.4 2 Sur 9 Oeste 0 -- -- 86
2020-01-10 02:00:00 1.6 2 Oeste 10 Sur 0 -- -- 86
2020-01-10 01:00:00 2.4 4 Sudoeste 10 Sudeste 0 -- -- 82
2020-01-10 00:00:00 3.2 4 Sur 9 Sudeste 0 -- -- 77
2020-01-09 23:00:00 3.1 4 Sur 9 Oeste 0 -- -- 76
2020-01-09 22:00:00 4.2 5 Sudeste 10 Sudeste 0 -- -- 74
2020-01-09 21:00:00 5 6 Sudeste 15 Sudeste 0 -- -- 69
2020-01-09 20:00:00 5.8 0 Calma 7 Sur 0 -- -- 66
2020-01-09 19:00:00 6.3 4 Sur 8 Sur 0 -- -- 58
2020-01-09 18:00:00 8.3 5 Oeste 13 Oeste 0 -- -- 53
2020-01-09 17:00:00 11.4 10 Noroeste 17 Norte 0 -- -- 42
2020-01-09 16:00:00 13.4 9 Norte 18 Norte 0 -- -- 43
2020-01-09 15:00:00 15.1 11 Este 20 Este 0 -- -- 40
2020-01-09 14:00:00 14.8 7 Sudeste 18 Sudeste 0 -- -- 39
2020-01-09 13:00:00 12.8 4 Este 9 Nordeste 0 -- -- 48
2020-01-09 12:00:00 8.9 4 Este 17 Sudeste 0 -- -- 61
2020-01-09 11:00:00 4.8 12 Sudeste 21 Sudeste 0 -- -- 75
2020-01-09 10:00:00 1.7 17 Sudeste 26 Sudeste 0 -- -- 84
2020-01-09 09:00:00 -0.7 18 Sudeste 24 Sudeste 0 -- -- 92
2020-01-09 08:00:00 -1.2 16 Sudeste 23 Sudeste 0 -- -- 92
2020-01-09 07:00:00 -1.3 3 Oeste 18 Sudeste 0 -- -- 91
2020-01-09 06:00:00 -0.6 13 Sudeste 26 Sudeste 0 -- -- 91
2020-01-09 05:00:00 -0.3 14 Sudeste 24 Sudeste 0 -- -- 91
2020-01-09 04:00:00 -0.2 12 Sudeste 22 Sudeste 0 -- -- 91
2020-01-09 03:00:00 0.2 13 Sudeste 22 Sudeste 0 -- -- 91
2020-01-09 02:00:00 0.1 6 Sudeste 15 Sudeste 0 -- -- 91
2020-01-09 01:00:00 0.4 4 Sudeste 13 Sudeste 0 -- -- 90
2020-01-09 00:00:00 1.2 5 Sudeste 15 Sudeste 0 -- -- 89
2020-01-08 23:00:00 2.1 9 Sur 15 Sudeste 0 -- -- 87
2020-01-08 22:00:00 2.7 8 Sudeste 12 Este 0 -- -- 87
2020-01-08 21:00:00 3.2 2 Sur 6 Sur 0 -- -- 85
2020-01-08 20:00:00 4.1 0 Calma 4 Sur 0 -- -- 81
2020-01-08 19:00:00 6 0 Calma 8 Oeste 0 -- -- 74
2020-01-08 18:00:00 7.2 2 Noroeste 12 Norte 0 -- -- 72
2020-01-08 17:00:00 11.3 6 Nordeste 13 Nordeste 0 -- -- 59
2020-01-08 16:00:00 12.8 4 Este 18 Sudeste 0 -- -- 55
2020-01-08 15:00:00 11.8 7 Norte 14 Nordeste 0 -- -- 56
2020-01-08 14:00:00 11.6 4 Noroeste 13 Sudeste 0 -- -- 54
2020-01-08 13:00:00 11.2 5 Este 13 Nordeste 0 -- -- 50
2020-01-08 12:00:00 10.4 3 Sudeste 8 Sudeste 0 -- -- 50
2020-01-08 11:00:00 5.7 2 Este 10 Sudeste 0 -- -- 57
2020-01-08 10:00:00 1.6 3 Norte 8 Oeste 0 -- -- 68
2020-01-08 09:00:00 -1.5 0 Calma 8 Oeste 0 -- -- 75
2020-01-08 08:00:00 -1.3 3 Sur 10 Oeste 0 -- -- 72
2020-01-08 07:00:00 -1 4 Sudoeste 13 Sudeste 0 -- -- 71
2020-01-08 06:00:00 -0.9 2 Sur 6 Sudeste 0 -- -- 68
2020-01-08 05:00:00 -1 2 Nordeste 12 Este 0 -- -- 67
2020-01-08 04:00:00 -1.2 4 Noroeste 8 Noroeste 0 -- -- 66
2020-01-08 03:00:00 -1.4 3 Noroeste 9 Norte 0 -- -- 67
2020-01-08 02:00:00 -1 0 Calma 8 Este 0 -- -- 65
2020-01-08 01:00:00 -0.2 2 Sudeste 9 Oeste 0 -- -- 61
2020-01-08 00:00:00 -0.3 3 Sur 11 Oeste 0 -- -- 62
2020-01-07 23:00:00 0.4 2 Oeste 6 Oeste 0 -- -- 59
2020-01-07 22:00:00 1.5 0 Calma 9 Sudeste 0 -- -- 55
2020-01-07 21:00:00 1.8 4 Sur 9 Sur 0 -- -- 55
2020-01-07 20:00:00 2.5 4 Noroeste 10 Sudeste 0 -- -- 53
2020-01-07 19:00:00 5.5 3 Sudoeste 8 Sudeste 0 -- -- 42
2020-01-07 18:00:00 8.8 4 Noroeste 12 Noroeste 0 -- -- 35
2020-01-07 17:00:00 13.4 6 Norte 17 Oeste 0 -- -- 22
2020-01-07 16:00:00 16.2 5 Oeste 21 Noroeste 0 -- -- 19
2020-01-07 15:00:00 15.9 15 Noroeste 30 Noroeste 0 -- -- 21
2020-01-07 14:00:00 15.1 10 Norte 20 Norte 0 -- -- 23
2020-01-07 13:00:00 13.8 4 Sudeste 11 Este 0 -- -- 30
2020-01-07 12:00:00 9.1 5 Este 10 Este 0 -- -- 44
2020-01-07 11:00:00 4.1 3 Norte 12 Este 0 -- -- 53
2020-01-07 10:00:00 0.1 3 Oeste 17 Sudeste 0 -- -- 68
2020-01-07 09:00:00 -3.5 3 Sur 14 Este 0 -- -- 82
2020-01-07 08:00:00 -3.1 7 Sudeste 14 Este 0 -- -- 79
2020-01-07 07:00:00 -3.1 5 Este 15 Este 0 -- -- 77
2020-01-07 06:00:00 -2.7 6 Oeste 16 Este 0 -- -- 77
2020-01-07 05:00:00 -3 4 Noroeste 10 Sudeste 0 -- -- 78
2020-01-07 04:00:00 -2.6 4 Oeste 9 Noroeste 0 -- -- 77
2020-01-07 03:00:00 -1.8 0 Calma 14 Sudeste 0 -- -- 74
2020-01-07 02:00:00 -1.2 8 Sudeste 18 Sur 0 -- -- 73
2020-01-07 01:00:00 -1.4 2 Oeste 10 Oeste 0 -- -- 74
2020-01-07 00:00:00 -1 0 Calma 9 Noroeste 0 -- -- 72
2020-01-06 23:00:00 0.1 2 Sur 8 Oeste 0 -- -- 67
2020-01-06 22:00:00 1.1 3 Sudeste 11 Oeste 0 -- -- 64
2020-01-06 21:00:00 2 6 Oeste 12 Sudeste 0 -- -- 62
2020-01-06 20:00:00 4 3 Sur 8 Sur 0 -- -- 55
2020-01-06 19:00:00 5.2 0 Calma 5 Sudeste 0 -- -- 50
2020-01-06 18:00:00 7.3 5 Sur 9 Oeste 0 -- -- 42
2020-01-06 17:00:00 10.6 5 Sudoeste 14 Nordeste 0 -- -- 34
2020-01-06 16:00:00 13.4 9 Norte 23 Norte 0 -- -- 29
2020-01-06 15:00:00 14.5 9 Norte 17 Norte 0 -- -- 29
2020-01-06 14:00:00 14.4 6 Norte 14 Norte 0 -- -- 32
2020-01-06 13:00:00 12.8 4 Norte 8 Norte 0 -- -- 31
2020-01-06 12:00:00 10 4 Sudeste 20 Sudeste 0 -- -- 38
2020-01-06 11:00:00 5.3 12 Sudeste 23 Sudeste 0 -- -- 46
2020-01-06 10:00:00 1 5 Noroeste 18 Este 0 -- -- 60